Time;durP1;ratioP1;P1;durP2;ratioP2;P2;SDS_P1;SDS_P2;PMS_P1;PMS_P2;Temp;Humidity;BMP_temperature;BMP_pressure;BME280_temperature;BME280_humidity;BME280_pressure;Samples;Min_cycle;Max_cycle;Signal;HPM_P1;HPM_P2
2023/03/18 00:01:02;;;;;;;5.45;2.10;;;;;;;-1.19;45.57;100929.31;7340715;19;20022;-70
2023/03/18 00:03:27;;;;;;;4.88;2.60;;;;;;;-1.22;45.87;100934.56;7340688;19;20034;-70
2023/03/18 00:06:02;;;;;;;5.03;2.20;;;;;;;-1.23;45.87;100943.28;7341277;19;20022;-67
2023/03/18 00:08:27;;;;;;;4.03;2.25;;;;;;;-1.27;45.98;100931.09;7340779;19;20857;-68
2023/03/18 00:10:51;;;;;;;3.83;2.90;;;;;;;-1.30;46.16;100930.22;7340504;19;20470;-69
2023/03/18 00:13:17;;;;;;;2.83;2.03;;;;;;;-1.30;46.08;100933.72;7339457;19;20017;-70
2023/03/18 00:15:42;;;;;;;3.47;1.92;;;;;;;-1.30;46.30;100931.09;7340958;19;20485;-70
2023/03/18 00:18:07;;;;;;;5.72;2.15;;;;;;;-1.32;46.40;100948.53;7338185;19;20295;-73
2023/03/18 00:20:37;;;;;;;5.80;2.60;;;;;;;-1.36;46.66;100940.72;7342460;19;20015;-68
2023/03/18 00:23:02;;;;;;;5.03;2.60;;;;;;;-1.36;46.55;100945.97;7339459;19;20498;-68
2023/03/18 00:25:27;;;;;;;4.32;2.17;;;;;;;-1.36;46.58;100941.59;7340988;19;20527;-69
2023/03/18 00:27:51;;;;;;;3.60;2.20;;;;;;;-1.39;46.83;100936.38;7341002;19;20006;-71
2023/03/18 00:30:17;;;;;;;3.47;1.58;;;;;;;-1.41;46.86;100939.84;7343027;19;20192;-71
2023/03/18 00:32:41;;;;;;;11.75;3.45;;;;;;;-1.44;46.93;100940.72;7339449;19;20023;-68
2023/03/18 00:35:06;;;;;;;4.78;2.20;;;;;;;-1.49;47.01;100935.53;7341702;19;20074;-69
2023/03/18 00:37:32;;;;;;;5.03;2.17;;;;;;;-1.47;47.13;100949.44;7338710;19;20015;-70
2023/03/18 00:40:05;;;;;;;5.70;2.95;;;;;;;-1.46;47.24;100943.34;7339876;19;20018;-69
2023/03/18 00:42:38;;;;;;;3.38;1.70;;;;;;;-1.48;47.33;100960.81;7338696;19;20035;-71
2023/03/18 00:45:06;;;;;;;5.93;2.38;;;;;;;-1.47;47.46;100945.97;7343709;19;20342;-70
2023/03/18 00:47:31;;;;;;;6.78;2.50;;;;;;;-1.49;47.58;100950.34;7341079;19;20010;-68
2023/03/18 00:49:56;;;;;;;4.05;2.17;;;;;;;-1.51;47.65;100949.47;7346737;19;20052;-66
2023/03/18 00:52:21;;;;;;;2.83;1.55;;;;;;;-1.53;47.73;100944.22;7349419;19;20343;-69
2023/03/18 00:54:46;;;;;;;8.50;2.42;;;;;;;-1.51;47.66;100952.06;7349041;19;20090;-66
2023/03/18 00:57:11;;;;;;;3.05;2.00;;;;;;;-1.48;47.73;100957.31;7347699;19;20054;-69
2023/03/18 00:59:36;;;;;;;4.40;3.35;;;;;;;-1.50;47.86;100954.69;7350177;19;20010;-64
2023/03/18 01:02:00;;;;;;;10.45;2.35;;;;;;;-1.49;47.74;100958.19;7344616;19;20018;-67
2023/03/18 01:04:26;;;;;;;4.30;2.40;;;;;;;-1.52;47.86;100964.28;7350478;19;20025;-68
2023/03/18 01:06:51;;;;;;;2.75;1.65;;;;;;;-1.50;47.94;100964.28;7345316;19;20014;-66
2023/03/18 01:09:16;;;;;;;4.60;2.15;;;;;;;-1.48;47.78;100952.94;7347881;19;20050;-66
2023/03/18 01:11:40;;;;;;;2.92;2.42;;;;;;;-1.52;47.97;100966.03;7344657;19;20015;-66
2023/03/18 01:14:05;;;;;;;3.05;2.47;;;;;;;-1.56;48.14;100972.13;7346392;19;20010;-67
2023/03/18 01:16:30;;;;;;;6.22;2.50;;;;;;;-1.59;48.27;100966.91;7345199;19;20021;-68
2023/03/18 01:18:55;;;;;;;4.32;2.25;;;;;;;-1.55;48.10;100966.03;7342730;19;20011;-67
2023/03/18 01:21:20;;;;;;;4.47;2.15;;;;;;;-1.57;48.19;100975.59;7344730;19;20021;-65
2023/03/18 01:23:52;;;;;;;4.97;2.53;;;;;;;-1.57;48.34;100976.47;7348068;19;20015;-66
2023/03/18 01:26:17;;;;;;;8.10;3.25;;;;;;;-1.61;48.37;100976.50;7344916;19;20019;-66
2023/03/18 01:28:43;;;;;;;7.60;2.63;;;;;;;-1.61;48.47;100977.38;7347096;19;20014;-66
2023/03/18 01:31:08;;;;;;;4.45;2.20;;;;;;;-1.61;48.45;100989.56;7347596;19;20053;-66
2023/03/18 01:33:34;;;;;;;4.30;2.08;;;;;;;-1.52;48.10;100986.94;7345723;19;20007;-68
2023/03/18 01:36:01;;;;;;;8.70;2.33;;;;;;;-1.47;47.99;100987.81;7348148;19;20011;-67
2023/03/18 01:38:31;;;;;;;7.88;2.78;;;;;;;-1.59;48.48;100990.44;7346327;19;20025;-67
2023/03/18 01:41:05;;;;;;;3.35;2.20;;;;;;;-1.63;48.44;100992.19;7344034;19;20123;-71
2023/03/18 01:43:35;;;;;;;7.03;3.10;;;;;;;-1.62;48.65;101000.91;7347867;19;20025;-69
2023/03/18 01:46:35;;;;;;;3.88;2.25;;;;;;;-1.53;48.49;100995.66;7344318;19;20526;-69
2023/03/18 01:49:03;;;;;;;6.60;3.10;;;;;;;-1.68;48.89;101004.38;7345981;19;20022;-67
2023/03/18 01:51:29;;;;;;;3.90;2.22;;;;;;;-1.71;48.85;101003.53;7346386;19;20058;-66
2023/03/18 01:53:58;;;;;;;3.92;2.83;;;;;;;-1.76;49.24;101018.31;7346246;19;20007;-69
2023/03/18 01:56:23;;;;;;;10.77;2.97;;;;;;;-1.76;49.30;101008.75;7346659;19;20014;-66
2023/03/18 01:58:54;;;;;;;6.32;2.33;;;;;;;-1.71;49.30;101017.47;7348090;19;20040;-64
2023/03/18 02:01:29;;;;;;;3.63;1.77;;;;;;;-1.81;49.28;101015.72;7342647;19;20075;-66
2023/03/18 02:03:58;;;;;;;8.77;3.30;;;;;;;-1.88;49.79;101017.44;7344336;19;20037;-67
2023/03/18 02:06:23;;;;;;;5.53;2.97;;;;;;;-1.93;49.82;101013.97;7346771;19;20795;-69
2023/03/18 02:08:56;;;;;;;6.03;2.30;;;;;;;-1.89;49.67;101017.44;7347163;19;20022;-70
2023/03/18 02:11:22;;;;;;;5.45;3.13;;;;;;;-1.92;49.88;101018.28;7345761;19;20038;-68
2023/03/18 02:13:49;;;;;;;6.25;2.42;;;;;;;-1.92;49.93;101022.69;7344442;19;20006;-67
2023/03/18 02:16:24;;;;;;;4.60;2.92;;;;;;;-1.93;50.00;101019.19;7344271;19;20039;-68
2023/03/18 02:18:50;;;;;;;;;;;;;;;-1.71;49.32;101022.69;7343692;19;20042;-65
2023/03/18 02:22:02;;;;;;;2.92;2.28;;;;;;;-1.78;49.30;101026.16;7342526;19;20048;-68
2023/03/18 02:24:51;;;;;;;9.10;2.50;;;;;;;-1.88;49.54;101035.75;7342191;19;20512;-65
2023/03/18 02:27:30;;;;;;;5.50;2.60;;;;;;;-1.97;50.21;101032.25;7341648;19;20015;-66
2023/03/18 02:30:00;;;;;;;6.00;3.00;;;;;;;-2.01;50.11;101030.47;7345060;19;20019;-65
2023/03/18 02:32:32;;;;;;;3.42;2.17;;;;;;;-2.04;50.33;101034.00;7341771;19;20029;-67
2023/03/18 02:35:04;;;;;;;7.45;2.35;;;;;;;-2.06;50.20;101035.72;7341129;19;20015;-65
2023/03/18 02:37:30;;;;;;;5.45;2.33;;;;;;;-2.04;50.34;101039.22;7341074;19;20493;-68
2023/03/18 02:40:15;;;;;;;7.47;2.83;;;;;;;-1.97;50.32;101050.53;7340458;19;20398;-69
2023/03/18 02:42:40;;;;;;;5.13;2.05;;;;;;;-1.98;50.23;101052.28;7343633;19;20449;-66
2023/03/18 02:45:16;;;;;;;5.75;2.55;;;;;;;-2.01;50.28;101048.78;7340944;19;20492;-67
2023/03/18 02:47:54;;;;;;;6.60;2.25;;;;;;;-2.05;50.50;101053.16;7340867;19;20018;-68
2023/03/18 02:50:20;;;;;;;3.53;1.70;;;;;;;-2.01;50.01;101054.88;7344537;19;20014;-66
2023/03/18 02:52:45;;;;;;;6.95;2.90;;;;;;;-2.08;50.37;101058.34;7342965;19;20014;-67
2023/03/18 02:55:10;;;;;;;5.25;2.40;;;;;;;-2.10;50.66;101060.09;7344638;19;20055;-67
2023/03/18 02:57:35;;;;;;;6.22;2.78;;;;;;;-2.12;50.61;101061.81;7345843;19;20022;-66
2023/03/18 03:00:00;;;;;;;5.13;2.40;;;;;;;-2.17;50.97;101070.53;7344250;19;20015;-66
2023/03/18 03:02:24;;;;;;;4.78;1.98;;;;;;;-2.21;50.79;101061.78;7345097;19;20027;-67
2023/03/18 03:04:50;;;;;;;6.38;2.45;;;;;;;-2.20;50.90;101061.81;7343364;19;20014;-67
2023/03/18 03:07:16;;;;;;;6.15;3.17;;;;;;;-2.12;50.64;101069.66;7342446;19;20434;-67
2023/03/18 03:09:46;;;;;;;5.45;2.53;;;;;;;-2.14;50.83;101074.00;7342440;19;20022;-65
2023/03/18 03:12:12;;;;;;;4.50;2.50;;;;;;;-2.17;50.59;101078.38;7339357;19;20014;-69
2023/03/18 03:14:42;;;;;;;3.95;2.45;;;;;;;-2.23;50.86;101082.69;7346845;19;20059;-74
2023/03/18 03:17:08;;;;;;;4.15;2.63;;;;;;;-2.17;50.64;101074.00;7342891;19;20015;-68
2023/03/18 03:19:33;;;;;;;4.20;1.92;;;;;;;-2.22;50.54;101065.28;7343235;19;20354;-72
2023/03/18 03:21:57;;;;;;;4.38;2.47;;;;;;;-2.31;50.81;101076.56;7342117;19;20354;-71
2023/03/18 03:24:23;;;;;;;4.88;2.08;;;;;;;-2.15;50.34;101079.25;7344950;19;20020;-71
2023/03/18 03:26:47;;;;;;;5.40;2.50;;;;;;;-2.23;50.49;101080.06;7340319;19;20019;-70
2023/03/18 03:29:13;;;;;;;3.35;2.67;;;;;;;-2.32;50.78;101074.81;7342105;19;20100;-73
2023/03/18 03:31:39;;;;;;;5.32;2.30;;;;;;;-2.37;50.99;101084.38;7342753;19;20023;-72
2023/03/18 03:34:04;;;;;;;2.03;1.63;;;;;;;-2.42;50.93;101087.84;7344992;19;20343;-72
2023/03/18 03:36:29;;;;;;;4.88;2.85;;;;;;;-2.24;50.64;101080.06;7345938;19;20677;-73
2023/03/18 03:38:54;;;;;;;6.20;1.83;;;;;;;-2.28;50.48;101081.81;7344404;19;20089;-72
2023/03/18 03:41:19;;;;;;;3.55;2.13;;;;;;;-2.22;50.34;101087.03;7345558;19;20014;-73
2023/03/18 03:43:46;;;;;;;6.07;2.53;;;;;;;-2.23;50.21;101077.47;7346424;19;20014;-71
2023/03/18 03:46:11;;;;;;;4.00;2.67;;;;;;;-2.34;50.65;101081.78;7348739;19;20006;-70
2023/03/18 03:48:38;;;;;;;3.55;2.75;;;;;;;-2.41;50.90;101082.63;7347858;19;20048;-70
2023/03/18 03:51:06;;;;;;;2.80;1.98;;;;;;;-2.35;50.75;101080.03;7345493;19;20015;-71
2023/03/18 03:53:32;;;;;;;4.57;1.92;;;;;;;-2.27;50.80;101085.31;7344331;19;20057;-70
2023/03/18 03:55:57;;;;;;;5.55;2.53;;;;;;;-2.10;50.32;101077.50;7343878;19;20033;-71
2023/03/18 03:58:22;;;;;;;1.73;1.20;;;;;;;-2.00;50.15;101082.75;7344622;19;20090;-71
2023/03/18 04:00:47;;;;;;;5.05;2.15;;;;;;;-1.84;50.04;101094.13;7340349;19;20030;-71
2023/03/18 04:03:12;;;;;;;5.57;2.35;;;;;;;-1.68;49.84;101088.03;7342167;19;20023;-71
2023/03/18 04:05:37;;;;;;;2.40;2.08;;;;;;;-1.46;49.54;101089.78;7342259;19;20450;-71
2023/03/18 04:08:03;;;;;;;6.82;2.30;;;;;;;-1.18;48.79;101092.41;7345863;19;20367;-73
2023/03/18 04:10:35;;;;;;;3.70;2.17;;;;;;;-0.92;48.62;101095.00;7348905;19;20026;-74
2023/03/18 04:13:01;;;;;;;5.95;2.90;;;;;;;-0.63;47.77;101087.94;7346239;19;20919;-72
2023/03/18 04:15:26;;;;;;;6.78;2.80;;;;;;;-0.42;47.25;101092.25;7358320;19;20011;-72
2023/03/18 04:17:52;;;;;;;6.35;3.15;;;;;;;-0.22;46.80;101084.28;7352092;19;20019;-72
2023/03/18 04:20:17;;;;;;;5.30;2.03;;;;;;;-0.07;46.76;101095.59;7351522;19;20105;-72
2023/03/18 04:22:44;;;;;;;3.50;2.13;;;;;;;0.10;46.37;101092.88;7352985;19;20070;-72
2023/03/18 04:25:10;;;;;;;2.90;2.30;;;;;;;0.28;46.09;101098.00;7358691;19;20069;-72
2023/03/18 04:27:38;;;;;;;3.67;2.20;;;;;;;0.44;45.74;101097.91;7354963;19;20055;-71
2023/03/18 04:30:07;;;;;;;5.68;2.08;;;;;;;0.62;45.72;101097.78;7355338;19;20015;-71
2023/03/18 04:32:40;;;;;;;;;;;;;;;0.86;46.38;101108.06;7354903;19;20018;-72
2023/03/18 04:35:05;;;;;;;;;;;;;;;1.11;44.85;101099.97;7359028;19;19919;-70
2023/03/18 04:37:29;;;;;;;3.60;2.00;;;;;;;0.88;44.71;101100.19;7355766;19;19923;-72
2023/03/18 04:39:58;;;;;;;3.17;1.65;;;;;;;1.09;44.73;101114.00;7356632;19;20018;-71
2023/03/18 04:42:22;;;;;;;3.13;2.70;;;;;;;1.04;44.75;101107.91;7354131;19;20086;-72
2023/03/18 04:44:47;;;;;;;4.80;1.70;;;;;;;1.18;44.71;101109.53;7357828;19;20015;-70
2023/03/18 04:47:12;;;;;;;2.88;1.42;;;;;;;1.36;44.80;101111.94;7354378;19;20014;-70
2023/03/18 04:49:37;;;;;;;4.30;2.40;;;;;;;1.28;44.33;101119.91;7354492;19;20017;-71
2023/03/18 04:52:03;;;;;;;5.85;2.60;;;;;;;1.33;44.83;101114.63;7353678;19;20033;-71
2023/03/18 04:54:30;;;;;;;6.10;3.38;;;;;;;1.45;44.75;101122.38;7357155;19;20022;-71
2023/03/18 04:56:58;;;;;;;10.35;3.00;;;;;;;1.62;44.55;101109.91;7353200;19;20015;-69
2023/03/18 04:59:25;;;;;;;4.70;2.65;;;;;;;1.76;44.28;101115.88;7353078;19;20025;-71
2023/03/18 05:01:51;;;;;;;3.30;1.77;;;;;;;2.00;43.60;101109.47;7351339;19;20025;-72
2023/03/18 05:04:16;;;;;;;3.28;2.15;;;;;;;2.06;43.48;101111.13;7353208;19;20023;-70
2023/03/18 05:06:46;;;;;;;2.75;2.30;;;;;;;2.13;42.96;101120.69;7355554;19;20494;-71
2023/03/18 05:09:12;;;;;;;5.93;2.80;;;;;;;2.14;42.78;101122.44;7353405;19;20057;-71
2023/03/18 05:11:38;;;;;;;5.82;2.60;;;;;;;2.22;43.19;101115.28;7352813;19;20795;-70
2023/03/18 05:14:20;;;;;;;4.30;3.47;;;;;;;2.58;42.81;101119.16;7354265;19;20046;-71
2023/03/18 05:16:46;;;;;;;7.13;2.22;;;;;;;2.99;42.27;101126.38;7354743;19;20027;-73
2023/03/18 05:19:11;;;;;;;10.57;2.72;;;;;;;3.41;41.41;101118.59;7352307;19;20022;-72
2023/03/18 05:21:42;;;;;;;11.38;2.65;;;;;;;3.70;41.09;101115.41;7350693;19;20474;-71
2023/03/18 05:24:08;;;;;;;4.68;3.20;;;;;;;3.95;40.43;101117.50;7353533;19;20453;-71
2023/03/18 05:26:37;;;;;;;7.72;2.95;;;;;;;3.99;39.93;101120.97;7351540;19;20018;-71
2023/03/18 05:29:04;;;;;;;1.80;1.25;;;;;;;4.19;39.56;101112.59;7352263;19;20067;-71
2023/03/18 05:31:57;;;;;;;5.35;2.63;;;;;;;4.34;38.91;101128.13;7352683;19;20010;-71
2023/03/18 05:34:23;;;;;;;9.68;1.77;;;;;;;4.53;38.66;101133.84;7354855;19;20106;-72
2023/03/18 05:36:48;;;;;;;4.38;2.03;;;;;;;4.84;38.44;101116.38;7353707;19;20014;-72
2023/03/18 05:39:13;;;;;;;6.35;2.33;;;;;;;5.33;37.62;101129.19;7350861;19;20034;-71
2023/03/18 05:41:38;;;;;;;7.15;2.17;;;;;;;5.93;36.71;101109.94;7344021;19;20339;-71
2023/03/18 05:44:07;;;;;;;3.05;2.30;;;;;;;6.70;35.69;101114.63;7350204;19;20120;-71
2023/03/18 05:46:34;;;;;;;9.77;2.92;;;;;;;7.64;34.76;101110.53;7345603;19;20323;-71
2023/03/18 05:49:05;;;;;;;4.43;2.97;;;;;;;8.41;33.14;101116.50;7345035;19;20816;-72
2023/03/18 05:51:40;;;;;;;7.53;2.63;;;;;;;8.83;32.16;101113.91;7344632;19;20119;-74
2023/03/18 05:54:08;;;;;;;6.38;3.38;;;;;;;9.09;31.57;101119.03;7344416;19;20119;-73
2023/03/18 05:56:38;;;;;;;6.95;2.88;;;;;;;9.19;31.46;101111.53;7346654;19;20010;-74
2023/03/18 05:59:05;;;;;;;4.28;2.92;;;;;;;9.36;31.41;101109.91;7344306;19;20018;-73
2023/03/18 06:01:38;;;;;;;6.63;2.85;;;;;;;9.45;31.09;101112.16;7344889;19;20047;-71
2023/03/18 06:04:05;;;;;;;3.22;2.30;;;;;;;9.48;30.42;101116.44;7344157;19;20013;-72
2023/03/18 06:06:30;;;;;;;9.60;3.08;;;;;;;9.77;31.04;101123.19;7344161;19;20025;-73
2023/03/18 06:08:57;;;;;;;3.40;2.38;;;;;;;10.60;29.36;101120.25;7343916;19;20081;-72
2023/03/18 06:11:23;;;;;;;8.38;3.05;;;;;;;11.10;28.78;101121.28;7347856;19;20022;-73
2023/03/18 06:13:49;;;;;;;4.20;2.33;;;;;;;11.68;28.45;101118.31;7346699;19;20023;-73
2023/03/18 06:16:14;;;;;;;6.15;2.33;;;;;;;12.22;27.63;101124.34;7349340;19;20089;-74
2023/03/18 06:18:39;;;;;;;4.05;2.97;;;;;;;12.63;27.02;101112.22;7343289;19;20018;-73
2023/03/18 06:21:05;;;;;;;4.72;2.53;;;;;;;12.92;26.44;101120.38;7342188;19;20025;-74
2023/03/18 06:23:31;;;;;;;7.50;2.65;;;;;;;12.22;26.66;101135.03;7343813;19;20018;-71
2023/03/18 06:25:56;;;;;;;6.93;2.95;;;;;;;12.60;26.48;101122.22;7343935;19;20462;-73
2023/03/18 06:28:28;;;;;;;4.38;2.97;;;;;;;12.98;26.12;101131.56;7344826;19;20014;-72
2023/03/18 06:30:57;;;;;;;7.30;3.25;;;;;;;13.28;26.08;101125.44;7343852;19;20018;-72
2023/03/18 06:33:22;;;;;;;10.88;3.15;;;;;;;13.88;25.28;101126.25;7344502;19;20026;-72
2023/03/18 06:35:48;;;;;;;3.58;2.47;;;;;;;14.43;24.72;101129.03;7344571;19;20027;-71
2023/03/18 06:38:14;;;;;;;13.13;3.00;;;;;;;15.09;24.10;101132.78;7344440;19;20018;-72
2023/03/18 06:40:40;;;;;;;3.83;2.35;;;;;;;15.88;23.66;101122.00;7343283;19;20363;-70
2023/03/18 06:43:06;;;;;;;5.15;2.10;;;;;;;16.56;22.87;101116.22;7342844;19;20061;-72
2023/03/18 06:45:34;;;;;;;6.28;2.85;;;;;;;15.65;22.15;101128.13;7342261;19;20102;-72
2023/03/18 06:48:04;;;;;;;6.95;3.30;;;;;;;15.14;22.35;101126.13;7340590;19;20014;-72
2023/03/18 06:50:31;;;;;;;9.27;3.38;;;;;;;15.59;22.50;101129.38;7342686;19;20347;-73
2023/03/18 06:52:57;;;;;;;6.55;3.20;;;;;;;16.46;22.05;101124.09;7346580;19;20046;-72
2023/03/18 06:55:26;;;;;;;10.65;3.17;;;;;;;17.46;20.76;101120.25;7346032;19;20041;-72
2023/03/18 06:57:52;;;;;;;5.15;2.65;;;;;;;18.17;20.68;101133.53;7344873;19;20015;-73
2023/03/18 07:00:21;;;;;;;7.65;2.83;;;;;;;18.46;20.37;101131.19;7341889;19;20022;-72
2023/03/18 07:02:46;;;;;;;3.13;2.17;;;;;;;18.45;19.46;101134.88;7344665;19;20086;-72
2023/03/18 07:05:14;;;;;;;4.07;2.53;;;;;;;16.77;20.35;101128.13;7341840;19;20465;-72
2023/03/18 07:07:40;;;;;;;5.75;2.58;;;;;;;17.12;20.44;101143.50;7343928;19;20014;-73
2023/03/18 07:10:08;;;;;;;4.55;2.40;;;;;;;15.88;20.06;101143.50;7342774;19;20017;-72
2023/03/18 07:12:32;;;;;;;5.47;2.33;;;;;;;15.49;20.06;101137.19;7344784;19;20022;-72
2023/03/18 07:14:58;;;;;;;10.68;3.05;;;;;;;14.70;19.91;101145.16;7346053;19;20018;-71
2023/03/18 07:17:23;;;;;;;9.38;2.85;;;;;;;14.65;20.36;101141.94;7343840;19;20485;-73
2023/03/18 07:19:48;;;;;;;2.10;1.40;;;;;;;15.81;20.36;101136.81;7341950;19;20522;-73
2023/03/18 07:22:14;;;;;;;4.88;2.05;;;;;;;15.57;19.89;101134.03;7342738;19;20058;-71
2023/03/18 07:24:40;;;;;;;5.60;2.58;;;;;;;15.23;20.17;101146.16;7342795;19;20014;-69
2023/03/18 07:27:05;;;;;;;4.00;2.70;;;;;;;15.89;19.77;101129.97;7341794;19;20018;-73
2023/03/18 07:29:32;;;;;;;6.47;2.63;;;;;;;16.41;18.44;101137.00;7341724;19;20352;-71
2023/03/18 07:31:57;;;;;;;5.95;2.28;;;;;;;17.48;18.31;101129.94;7341303;19;20022;-72
2023/03/18 07:34:23;;;;;;;5.05;2.85;;;;;;;18.66;17.60;101129.59;7344954;19;20026;-73
2023/03/18 07:36:48;;;;;;;8.18;2.45;;;;;;;19.15;16.90;101123.72;7342986;19;20022;-70
2023/03/18 07:39:13;;;;;;;2.05;1.23;;;;;;;19.39;16.61;101134.31;7340522;19;20143;-72
2023/03/18 07:41:38;;;;;;;5.35;2.60;;;;;;;17.37;16.50;101129.91;7339527;19;20025;-72
2023/03/18 07:44:03;;;;;;;4.38;2.65;;;;;;;16.68;17.13;101128.81;7342368;19;20014;-71
2023/03/18 07:46:28;;;;;;;6.72;2.78;;;;;;;17.33;17.40;101131.09;7343757;19;20466;-71
2023/03/18 07:48:53;;;;;;;17.02;2.83;;;;;;;17.76;16.62;101128.69;7340888;19;20021;-72
2023/03/18 07:51:17;;;;;;;4.85;2.05;;;;;;;17.04;15.53;101134.16;7346033;19;20023;-71
2023/03/18 07:53:43;;;;;;;4.72;2.58;;;;;;;17.11;16.59;101126.47;7341942;19;20439;-72
2023/03/18 07:56:08;;;;;;;6.30;3.00;;;;;;;17.58;16.41;101125.56;7342468;19;20703;-70
2023/03/18 07:58:33;;;;;;;5.25;2.70;;;;;;;18.65;16.35;101120.63;7339803;19;20032;-73
2023/03/18 08:00:58;;;;;;;3.53;2.90;;;;;;;20.13;15.78;101117.00;7341384;19;20022;-72
2023/03/18 08:03:23;;;;;;;5.47;2.83;;;;;;;20.50;14.60;101116.50;7347338;19;20081;-73
2023/03/18 08:05:48;;;;;;;4.40;2.80;;;;;;;19.54;14.62;101120.34;7343236;19;20014;-73
2023/03/18 08:08:15;;;;;;;2.78;2.55;;;;;;;18.95;15.17;101130.78;7341712;19;20018;-71
2023/03/18 08:10:40;;;;;;;3.97;2.92;;;;;;;18.26;15.02;101116.59;7341172;19;20493;-71
2023/03/18 08:13:05;;;;;;;8.98;2.90;;;;;;;18.48;15.42;101121.13;7343508;19;20018;-72
2023/03/18 08:15:30;;;;;;;8.55;3.90;;;;;;;18.62;15.17;101122.75;7344136;19;20029;-72
2023/03/18 08:17:54;;;;;;;6.35;2.90;;;;;;;18.47;15.53;101120.28;7342686;19;20019;-73
2023/03/18 08:20:20;;;;;;;9.10;3.35;;;;;;;18.11;15.71;101120.53;7340774;19;20038;-72
2023/03/18 08:22:45;;;;;;;5.50;3.00;;;;;;;19.28;15.94;101127.09;7345619;19;20478;-73
2023/03/18 08:25:10;;;;;;;7.22;3.17;;;;;;;20.30;15.30;101121.81;7342979;19;20015;-72
2023/03/18 08:27:35;;;;;;;10.23;4.00;;;;;;;20.77;15.40;101113.16;7341263;19;20014;-72
2023/03/18 08:29:59;;;;;;;6.40;4.20;;;;;;;21.54;15.07;101113.22;7342449;19;20010;-72
2023/03/18 08:32:24;;;;;;;7.13;3.78;;;;;;;22.62;14.60;101116.31;7340301;19;20010;-73
2023/03/18 08:34:49;;;;;;;7.13;3.88;;;;;;;23.47;14.00;101110.47;7343065;19;20035;-75
2023/03/18 08:37:13;;;;;;;6.40;3.55;;;;;;;24.11;13.44;101107.38;7341172;19;20007;-71
2023/03/18 08:39:38;;;;;;;7.15;3.17;;;;;;;24.01;13.39;101103.91;7341512;19;20010;-73
2023/03/18 08:42:03;;;;;;;5.35;4.00;;;;;;;24.03;13.32;101110.06;7342226;19;20015;-71
2023/03/18 08:44:28;;;;;;;5.47;4.22;;;;;;;23.44;13.25;101114.34;7344236;19;20018;-71
2023/03/18 08:46:52;;;;;;;6.18;4.50;;;;;;;22.95;13.92;101110.28;7339317;19;20024;-72
2023/03/18 08:49:17;;;;;;;5.55;3.63;;;;;;;23.79;13.68;101102.56;7339430;19;20684;-72
2023/03/18 08:51:42;;;;;;;6.20;3.83;;;;;;;25.20;13.14;101100.13;7342758;19;20355;-72
2023/03/18 08:54:07;;;;;;;5.28;4.22;;;;;;;26.31;12.85;101097.66;7339072;19;20454;-73
2023/03/18 08:56:33;;;;;;;6.63;4.05;;;;;;;26.90;12.48;101100.81;7340629;19;20356;-72
2023/03/18 08:58:57;;;;;;;5.18;3.45;;;;;;;27.22;12.25;101089.66;7339180;19;20014;-73
2023/03/18 09:01:22;;;;;;;5.63;4.20;;;;;;;27.17;11.93;101092.13;7341682;19;20027;-74
2023/03/18 09:03:49;;;;;;;7.00;4.00;;;;;;;26.91;11.88;101097.91;7340043;19;20026;-70
2023/03/18 09:06:14;;;;;;;5.70;3.50;;;;;;;26.98;12.15;101090.69;7341920;19;20014;-71
2023/03/18 09:08:39;;;;;;;7.28;4.13;;;;;;;27.23;11.61;101090.53;7342905;19;20037;-73
2023/03/18 09:11:06;;;;;;;4.78;4.20;;;;;;;27.08;11.85;101091.34;7347272;19;20019;-72
2023/03/18 09:13:30;;;;;;;7.70;3.97;;;;;;;26.82;11.82;101095.38;7349253;19;20089;-72
2023/03/18 09:15:55;;;;;;;8.18;4.07;;;;;;;26.87;11.92;101084.75;7350611;19;20056;-72
2023/03/18 09:18:21;;;;;;;5.15;3.85;;;;;;;26.65;11.77;101081.78;7346117;19;20010;-72
2023/03/18 09:20:46;;;;;;;4.57;3.35;;;;;;;26.49;11.78;101083.75;7347731;19;20090;-73
2023/03/18 09:23:13;;;;;;;3.90;3.33;;;;;;;27.03;12.01;101074.59;7352907;19;20022;-73
2023/03/18 09:25:39;;;;;;;5.75;3.78;;;;;;;25.49;11.93;101082.41;7353064;19;20022;-72
2023/03/18 09:28:04;;;;;;;4.20;3.40;;;;;;;25.40;11.67;101076.06;7351323;19;20084;-73
2023/03/18 09:30:29;;;;;;;5.05;3.30;;;;;;;24.97;12.06;101074.50;7352314;19;20014;-72
2023/03/18 09:32:55;;;;;;;3.88;3.15;;;;;;;25.19;11.67;101073.00;7355789;19;20078;-74
2023/03/18 09:35:20;;;;;;;6.50;3.10;;;;;;;25.44;11.50;101073.88;7350708;19;20046;-71
2023/03/18 09:37:44;;;;;;;3.78;2.40;;;;;;;26.71;12.02;101075.63;7353967;19;20023;-73
2023/03/18 09:40:18;;;;;;;3.30;3.00;;;;;;;25.34;11.88;101068.59;7352012;19;20027;-73
2023/03/18 09:43:01;;;;;;;4.13;2.97;;;;;;;25.44;12.12;101061.06;7349785;19;20010;-72
2023/03/18 09:45:45;;;;;;;5.88;3.72;;;;;;;27.03;11.52;101062.78;7351514;19;20049;-70
2023/03/18 09:48:28;;;;;;;;;;;;;;;28.79;12.39;101054.78;7352273;19;20070;-73
2023/03/18 09:51:28;;;;;;;11.68;3.47;;;;;;;27.80;10.71;101056.13;7354418;19;19922;-75
2023/03/18 09:54:19;;;;;;;5.82;3.20;;;;;;;28.87;11.76;101062.06;7348456;19;20032;-75
2023/03/18 09:56:44;;;;;;;8.32;2.92;;;;;;;26.89;10.29;101050.69;7348857;19;20024;-73
2023/03/18 09:59:22;;;;;;;7.55;3.70;;;;;;;26.12;11.78;101046.09;7346455;19;20032;-72
2023/03/18 10:01:53;;;;;;;3.70;3.10;;;;;;;25.66;11.45;101038.53;7349613;19;20816;-72
2023/03/18 10:04:31;;;;;;;5.30;3.30;;;;;;;26.70;11.96;101045.69;7344332;19;20467;-73
2023/03/18 10:07:12;;;;;;;3.53;3.22;;;;;;;26.82;11.07;101038.78;7345300;19;20044;-71
2023/03/18 10:09:47;;;;;;;4.20;3.10;;;;;;;26.22;10.71;101028.47;7353571;19;20039;-74
2023/03/18 10:12:41;;;;;;;8.50;3.42;;;;;;;25.91;11.63;101022.94;7357521;19;20474;-74
2023/03/18 10:15:15;;;;;;;2.93;2.57;;;;;;;25.58;12.20;101027.59;7364127;19;20026;-73
2023/03/18 10:17:44;;;;;;;4.32;3.35;;;;;;;22.55;11.76;101029.13;7367729;19;20011;-73
2023/03/18 10:20:33;;;;;;;5.40;3.42;;;;;;;21.50;13.06;101030.38;7361409;19;20014;-72
2023/03/18 10:23:31;;;;;;;5.63;2.67;;;;;;;20.31;12.95;101017.03;7343156;19;20106;-73
2023/03/18 10:26:03;;;;;;;3.72;2.65;;;;;;;17.97;13.35;101023.59;7343754;19;20050;-72
2023/03/18 10:28:36;;;;;;;3.50;2.50;;;;;;;16.03;13.98;101025.91;7344306;19;20026;-73
2023/03/18 10:31:30;;;;;;;4.32;2.35;;;;;;;14.28;15.13;101027.16;7345025;19;20038;-73
2023/03/18 10:34:00;;;;;;;5.85;3.13;;;;;;;12.11;15.77;101015.31;7344333;19;20018;-73
2023/03/18 10:36:47;;;;;;;3.10;2.40;;;;;;;11.24;17.06;101004.00;7343760;19;20855;-71
2023/03/18 10:39:18;;;;;;;3.22;2.50;;;;;;;10.17;17.50;101019.16;7344464;19;20035;-73
2023/03/18 10:41:48;;;;;;;4.30;2.50;;;;;;;9.18;18.03;101019.34;7342359;19;20022;-73
2023/03/18 10:44:27;;;;;;;6.07;2.22;;;;;;;8.72;18.48;101019.50;7344919;19;20074;-72
2023/03/18 10:46:57;;;;;;;3.40;2.60;;;;;;;7.93;19.34;101021.81;7343699;19;20499;-72
2023/03/18 10:49:29;;;;;;;5.20;3.60;;;;;;;7.59;19.63;101025.75;7344971;19;20058;-74
2023/03/18 10:52:04;;;;;;;3.50;2.50;;;;;;;7.21;20.07;101024.50;7343712;19;20022;-73
2023/03/18 10:54:31;;;;;;;4.70;2.35;;;;;;;7.28;19.96;101023.34;7343965;19;20018;-73
2023/03/18 10:56:56;;;;;;;4.55;2.65;;;;;;;6.49;20.92;101019.94;7344930;19;20029;-74
2023/03/18 10:59:24;;;;;;;6.68;2.45;;;;;;;6.08;23.25;101013.31;7348175;19;20462;-72
2023/03/18 11:01:57;;;;;;;3.10;1.90;;;;;;;6.04;22.37;101014.31;7340903;19;20044;-72
2023/03/18 11:04:24;;;;;;;6.90;2.97;;;;;;;6.01;22.64;101017.91;7343898;19;20413;-74
2023/03/18 11:06:56;;;;;;;3.58;2.50;;;;;;;6.14;22.66;101027.22;7346778;19;20319;-72
2023/03/18 11:09:28;;;;;;;2.05;1.60;;;;;;;6.21;22.21;101024.41;7343734;19;20025;-72
2023/03/18 11:12:01;;;;;;;6.90;2.40;;;;;;;6.06;22.33;101017.78;7345861;19;20014;-73
2023/03/18 11:14:29;;;;;;;6.03;2.65;;;;;;;5.69;23.16;101020.63;7343290;19;20028;-73
2023/03/18 11:17:03;;;;;;;3.35;2.38;;;;;;;5.43;23.47;101011.69;7343684;19;20356;-72
2023/03/18 11:19:32;;;;;;;4.05;2.20;;;;;;;5.30;23.98;101025.31;7347336;19;20477;-80
2023/03/18 11:22:04;;;;;;;5.10;2.67;;;;;;;5.59;23.26;101006.81;7342618;19;20572;-74
2023/03/18 11:24:38;;;;;;;11.00;2.88;;;;;;;5.20;23.74;101018.50;7345926;19;20026;-76
2023/03/18 11:27:22;;;;;;;3.65;2.58;;;;;;;5.14;23.85;101016.91;7344702;19;20014;-73
2023/03/18 11:30:09;;;;;;;3.38;2.78;;;;;;;5.02;24.15;101002.25;7342662;19;20374;-75
2023/03/18 11:32:35;;;;;;;4.18;2.80;;;;;;;4.99;24.77;101007.63;7341193;19;20026;-66